Terminal Aerodrome Forecast
Issued by NWS

Home | Current Version | Previous Version | Text Only | Print | Product List | Glossary Off
Versions: 1 2 3 4 5 6 7 8 9 10 11 12 13 14 15 16 17 18 19 20 21
000 FTUS41 KBOX 182332 TAFACK TAF KACK 182332Z 1900/1924 17013KT P6SM VCSH SCT027 BKN035 OVC060 FM190300 17016G26KT 5SM +SHRA BR OVC030 FM190600 18016G26KT 1SM +SHRA BR OVC008 FM190900 19014G23KT 3SM BR VCSH OVC003 FM191600 21012KT P6SM OVC003 FM192000 22013KT P6SM BKN045 FM192300 22013KT 4SM BR BKN050=

USA.gov is the U.S. government's official web portal to all federal, state and local government web resources and services.